Time;durP1;ratioP1;P1;durP2;ratioP2;P2;SDS_P1;SDS_P2;PMS_P1;PMS_P2;Temp;Humidity;BMP_temperature;BMP_pressure;BME280_temperature;BME280_humidity;BME280_pressure;Samples;Min_cycle;Max_cycle;Signal;HPM_P1;HPM_P2
2023/09/19 00:00:40;;;;;;;5.83;1.57;;;;;;;19.12;90.81;100058.44;4993275;28;20216;-68
2023/09/19 00:03:09;;;;;;;4.03;1.57;;;;;;;19.25;89.44;100057.56;4995174;28;20212;-69
2023/09/19 00:05:39;;;;;;;5.03;1.23;;;;;;;19.23;89.73;100054.28;4994283;28;20213;-68
2023/09/19 00:08:07;;;;;;;2.77;1.10;;;;;;;19.16;89.95;100065.88;4994423;28;20213;-68
2023/09/19 00:10:35;;;;;;;7.60;1.60;;;;;;;19.13;90.20;100063.63;4997029;28;20822;-68
2023/09/19 00:13:05;;;;;;;4.77;1.60;;;;;;;19.12;90.68;100064.66;4996505;28;20206;-69
2023/09/19 00:15:39;;;;;;;5.30;1.20;;;;;;;19.11;90.51;100068.38;4996253;28;20300;-68
2023/09/19 00:18:08;;;;;;;2.70;0.93;;;;;;;19.13;91.09;100066.31;4995533;28;20293;-68
2023/09/19 00:20:37;;;;;;;7.17;1.13;;;;;;;19.12;91.83;100075.41;4992690;28;20264;-68
2023/09/19 00:23:09;;;;;;;2.97;1.17;;;;;;;19.13;90.74;100069.00;4991309;28;20325;-70
2023/09/19 00:25:37;;;;;;;3.50;1.20;;;;;;;19.12;90.99;100074.56;4990511;28;20297;-68
2023/09/19 00:28:07;;;;;;;3.80;1.07;;;;;;;19.16;90.31;100068.56;4992657;28;20213;-69
2023/09/19 00:30:35;;;;;;;3.00;1.20;;;;;;;19.14;90.24;100072.50;4989881;28;20611;-68
2023/09/19 00:33:06;;;;;;;2.00;0.83;;;;;;;19.06;91.29;100076.25;4995902;28;20205;-68
2023/09/19 00:35:34;;;;;;;5.43;1.37;;;;;;;19.04;91.26;100070.28;4992230;28;20710;-69
2023/09/19 00:38:03;;;;;;;3.83;1.30;;;;;;;19.06;90.84;100076.25;4995303;28;20647;-69
2023/09/19 00:40:33;;;;;;;6.50;1.47;;;;;;;19.04;91.22;100078.31;4994358;28;20754;-69
2023/09/19 00:43:00;;;;;;;3.77;1.40;;;;;;;19.04;91.32;100081.03;4993945;28;20258;-68
2023/09/19 00:45:29;;;;;;;4.43;1.20;;;;;;;18.98;91.82;100078.34;4992072;28;20237;-68
2023/09/19 00:47:57;;;;;;;4.53;1.33;;;;;;;18.98;91.88;100087.25;4993978;28;20701;-69
2023/09/19 00:50:28;;;;;;;4.50;1.20;;;;;;;18.98;92.42;100081.03;4994567;28;20225;-69
2023/09/19 00:52:57;;;;;;;3.23;1.20;;;;;;;18.97;91.94;100080.22;4995291;28;20299;-69
2023/09/19 00:55:25;;;;;;;6.07;1.30;;;;;;;18.98;92.24;100089.94;4994196;28;20309;-68
2023/09/19 00:57:55;;;;;;;2.40;1.13;;;;;;;19.03;91.62;100090.13;4996891;28;20201;-70
2023/09/19 01:00:23;;;;;;;2.90;1.17;;;;;;;19.09;91.07;100091.94;4996612;28;20665;-68
2023/09/19 01:02:51;;;;;;;4.17;1.20;;;;;;;19.11;90.98;100094.41;4995674;28;20217;-68
2023/09/19 01:05:20;;;;;;;6.73;1.50;;;;;;;19.14;91.11;100089.47;4996621;28;20212;-67
2023/09/19 01:07:49;;;;;;;4.87;1.20;;;;;;;19.16;90.93;100089.25;4991578;28;20312;-68
2023/09/19 01:10:20;;;;;;;3.00;1.17;;;;;;;19.21;90.63;100096.66;4991325;28;20232;-68
2023/09/19 01:12:56;;;;;;;4.77;1.20;;;;;;;19.21;90.16;100094.78;4991665;28;20288;-67
2023/09/19 01:15:34;;;;;;;3.73;1.37;;;;;;;19.27;89.95;100099.31;4993337;28;20237;-69
2023/09/19 01:18:21;;;;;;;6.83;1.50;;;;;;;19.41;88.88;100098.22;4991666;28;20197;-68
2023/09/19 01:20:58;;;;;;;5.50;1.40;;;;;;;19.52;87.91;100102.16;4993051;28;20296;-68
2023/09/19 01:23:40;;;;;;;5.53;1.60;;;;;;;19.44;88.20;100102.34;4993606;28;20206;-68
2023/09/19 01:26:19;;;;;;;6.57;1.60;;;;;;;19.42;88.30;100101.75;4992876;28;20206;-69
2023/09/19 01:28:55;;;;;;;7.30;1.33;;;;;;;19.39;88.39;100102.16;4989447;28;20220;-69
2023/09/19 01:31:29;;;;;;;5.30;1.67;;;;;;;19.36;88.92;100105.28;4992454;28;20320;-68
2023/09/19 01:34:00;;;;;;;5.17;1.43;;;;;;;19.30;89.87;100119.56;4990939;28;20228;-68
2023/09/19 01:36:29;;;;;;;5.03;1.40;;;;;;;19.39;89.06;100121.81;4989066;28;22220;-68
2023/09/19 01:39:00;;;;;;;3.70;1.30;;;;;;;19.43;88.38;100116.84;4990630;28;20277;-68
2023/09/19 01:41:42;;;;;;;5.37;1.70;;;;;;;19.41;88.81;100126.97;4993176;28;20308;-68
2023/09/19 01:44:13;;;;;;;3.60;1.60;;;;;;;19.50;88.25;100126.56;4993343;28;20288;-68
2023/09/19 01:46:43;;;;;;;2.80;1.23;;;;;;;19.53;87.72;100126.09;4990093;28;20202;-68
2023/09/19 01:49:22;;;;;;;3.60;1.63;;;;;;;19.55;86.95;100131.28;4990742;28;20615;-68
2023/09/19 01:51:56;;;;;;;5.37;1.60;;;;;;;19.53;86.88;100133.34;4990825;28;20953;-69
2023/09/19 01:54:31;;;;;;;4.37;1.53;;;;;;;19.62;86.66;100133.91;4992600;28;20609;-68
2023/09/19 01:57:04;;;;;;;3.73;1.73;;;;;;;19.70;85.79;100137.19;4992978;28;20206;-69
2023/09/19 01:59:40;;;;;;;6.37;1.87;;;;;;;19.68;86.74;100139.28;4990760;28;20238;-70
2023/09/19 02:02:10;;;;;;;4.87;1.60;;;;;;;19.68;87.52;100133.91;4993806;28;20205;-67
2023/09/19 02:04:38;;;;;;;5.07;1.50;;;;;;;19.68;86.78;100141.16;4993225;28;20308;-69
2023/09/19 02:07:08;;;;;;;5.77;1.80;;;;;;;19.77;86.18;100138.00;4988577;28;20268;-68
2023/09/19 02:09:38;;;;;;;5.73;1.70;;;;;;;19.67;86.71;100147.56;4993173;28;20213;-68
2023/09/19 02:12:07;;;;;;;5.27;1.73;;;;;;;19.72;86.18;100145.88;4991363;28;20198;-68
2023/09/19 02:14:35;;;;;;;2.53;1.30;;;;;;;19.75;86.22;100158.91;4992124;28;20206;-69
2023/09/19 02:17:05;;;;;;;4.93;1.70;;;;;;;19.70;86.56;100161.41;4990962;28;20209;-68
2023/09/19 02:19:34;;;;;;;4.03;1.93;;;;;;;19.69;86.37;100164.31;4993133;28;20217;-68
2023/09/19 02:22:07;;;;;;;5.50;1.70;;;;;;;19.67;86.89;100167.22;4992970;28;20245;-68
2023/09/19 02:24:35;;;;;;;6.23;1.87;;;;;;;19.61;87.34;100169.97;4993440;28;20236;-68
2023/09/19 02:27:05;;;;;;;4.83;1.47;;;;;;;19.62;87.18;100179.66;4994437;28;20206;-67
2023/09/19 02:29:34;;;;;;;6.03;1.63;;;;;;;19.57;87.69;100185.69;4993032;28;20212;-67
2023/09/19 02:32:02;;;;;;;5.07;1.77;;;;;;;19.54;87.64;100183.41;4996466;28;20217;-69
2023/09/19 02:34:32;;;;;;;5.27;1.50;;;;;;;19.44;88.23;100183.00;4993753;28;20248;-67
2023/09/19 02:37:01;;;;;;;2.90;1.23;;;;;;;19.39;88.58;100180.13;4994185;28;20210;-68
2023/09/19 02:39:29;;;;;;;4.50;1.70;;;;;;;19.30;89.48;100190.28;4996400;28;20624;-68
2023/09/19 02:41:57;;;;;;;5.10;1.70;;;;;;;19.30;88.90;100184.09;4996210;28;20671;-70
2023/09/19 02:44:25;;;;;;;2.40;1.20;;;;;;;19.23;89.58;100188.66;5000123;28;20288;-67
2023/09/19 02:46:53;;;;;;;4.40;1.93;;;;;;;19.25;89.09;100191.97;4996417;28;20252;-68
2023/09/19 02:49:21;;;;;;;4.50;1.63;;;;;;;19.23;89.25;100192.19;4995181;28;20198;-68
2023/09/19 02:51:49;;;;;;;6.17;1.73;;;;;;;19.22;89.54;100195.06;4996374;28;20284;-69
2023/09/19 02:54:19;;;;;;;4.80;2.10;;;;;;;19.22;88.93;100200.44;4997559;28;20746;-70
2023/09/19 02:56:47;;;;;;;3.47;1.67;;;;;;;19.23;88.86;100204.78;4996352;28;20209;-68
2023/09/19 02:59:15;;;;;;;3.70;1.80;;;;;;;19.14;89.21;100199.66;4996493;28;20725;-67
2023/09/19 03:01:47;;;;;;;2.90;1.33;;;;;;;19.10;89.94;100195.72;4997673;28;20217;-68
2023/09/19 03:04:18;;;;;;;4.23;1.73;;;;;;;19.15;88.89;100190.56;4997355;28;20271;-69
2023/09/19 03:06:51;;;;;;;4.07;1.93;;;;;;;19.06;89.07;100193.66;4998937;28;20304;-69
2023/09/19 03:09:20;;;;;;;6.50;1.93;;;;;;;19.04;89.36;100206.47;4995055;28;20190;-69
2023/09/19 03:11:48;;;;;;;4.10;1.50;;;;;;;19.05;88.65;100208.97;4997669;28;20281;-68
2023/09/19 03:14:15;;;;;;;3.53;1.67;;;;;;;19.05;88.98;100208.97;4994074;28;20222;-70
2023/09/19 03:16:44;;;;;;;3.47;1.57;;;;;;;19.04;88.51;100215.38;4996345;28;20206;-67
2023/09/19 03:19:14;;;;;;;3.20;1.70;;;;;;;19.04;88.41;100215.38;4997276;28;20293;-68
2023/09/19 03:21:42;;;;;;;5.60;2.10;;;;;;;18.98;88.57;100218.91;4997772;28;20202;-69
2023/09/19 03:24:11;;;;;;;5.30;1.90;;;;;;;19.00;88.86;100226.72;4995461;28;20198;-68
2023/09/19 03:26:40;;;;;;;6.93;2.00;;;;;;;18.97;88.35;100230.69;4994273;28;20193;-68
2023/09/19 03:29:09;;;;;;;5.00;1.93;;;;;;;18.96;88.43;100223.66;4997601;28;20635;-68
2023/09/19 03:31:37;;;;;;;4.97;2.00;;;;;;;18.99;88.14;100238.53;4993143;28;20233;-68
2023/09/19 03:34:06;;;;;;;4.83;2.50;;;;;;;18.94;88.14;100232.94;4997812;28;20217;-67
2023/09/19 03:36:37;;;;;;;5.57;2.47;;;;;;;18.87;88.63;100230.28;4993841;28;20579;-69
2023/09/19 03:39:05;;;;;;;5.73;2.70;;;;;;;18.94;87.93;100233.78;4996782;28;20614;-70
2023/09/19 03:41:36;;;;;;;5.13;2.30;;;;;;;18.87;87.82;100232.13;4994296;28;20607;-68
2023/09/19 03:44:05;;;;;;;6.57;3.47;;;;;;;18.93;87.31;100237.50;4998283;28;20213;-69
2023/09/19 03:46:35;;;;;;;7.30;3.23;;;;;;;18.98;85.89;100235.03;4993775;28;20621;-68
2023/09/19 03:49:03;;;;;;;5.90;3.63;;;;;;;19.14;84.32;100229.22;4997945;28;20239;-68
2023/09/19 03:51:31;;;;;;;6.13;3.17;;;;;;;19.17;83.98;100236.03;4994446;28;20789;-70
2023/09/19 03:53:59;;;;;;;6.47;3.37;;;;;;;19.22;82.95;100236.22;4995598;28;20214;-70
2023/09/19 03:56:26;;;;;;;5.90;3.13;;;;;;;19.20;83.15;100232.91;4993417;28;20288;-68
2023/09/19 03:58:54;;;;;;;6.17;2.97;;;;;;;19.28;82.44;100239.91;4997373;28;20202;-66
2023/09/19 04:01:24;;;;;;;8.67;3.43;;;;;;;19.32;80.08;100241.16;4997909;28;20699;-67
2023/09/19 04:03:53;;;;;;;4.40;2.90;;;;;;;19.26;80.91;100245.50;4994903;28;20206;-68
2023/09/19 04:06:21;;;;;;;7.70;3.67;;;;;;;19.23;80.44;100239.75;4994661;28;20686;-68
2023/09/19 04:08:49;;;;;;;9.00;3.67;;;;;;;19.22;80.48;100240.78;4996653;28;20217;-67
2023/09/19 04:11:17;;;;;;;8.70;3.77;;;;;;;19.19;80.47;100242.00;4993768;28;20298;-69
2023/09/19 04:13:44;;;;;;;6.10;3.43;;;;;;;19.26;80.18;100242.03;4996307;28;20211;-69
2023/09/19 04:16:13;;;;;;;7.67;3.90;;;;;;;19.25;80.09;100245.75;4997065;28;20671;-68
2023/09/19 04:18:42;;;;;;;7.00;3.73;;;;;;;19.28;79.99;100242.59;4995337;28;20557;-68
2023/09/19 04:21:10;;;;;;;5.83;3.60;;;;;;;19.26;78.98;100244.72;4996287;28;20291;-68
2023/09/19 04:23:38;;;;;;;7.93;3.83;;;;;;;19.17;78.87;100250.28;4998002;28;20261;-68
2023/09/19 04:26:06;;;;;;;7.33;3.50;;;;;;;19.08;79.61;100259.63;4997087;28;20479;-71
2023/09/19 04:28:34;;;;;;;7.37;3.40;;;;;;;19.07;78.59;100257.13;4995812;28;20213;-68
2023/09/19 04:31:02;;;;;;;7.17;3.57;;;;;;;19.02;78.91;100268.50;4998493;28;20240;-69
2023/09/19 04:33:30;;;;;;;10.77;3.67;;;;;;;19.11;79.00;100258.34;4994295;28;20309;-68
2023/09/19 04:35:59;;;;;;;6.87;3.27;;;;;;;19.06;78.19;100259.00;4993989;28;20214;-68
2023/09/19 04:38:41;;;;;;;7.47;4.10;;;;;;;18.96;79.52;100269.34;4994230;28;20582;-69
2023/09/19 04:41:13;;;;;;;6.00;3.33;;;;;;;18.89;79.02;100265.81;4997833;28;20206;-69
2023/09/19 04:43:40;;;;;;;7.70;3.77;;;;;;;18.77;79.53;100275.53;4998022;28;20210;-68
2023/09/19 04:46:09;;;;;;;11.00;3.73;;;;;;;18.66;79.54;100273.44;4995159;28;20237;-70
2023/09/19 04:48:37;;;;;;;7.27;3.57;;;;;;;18.63;80.54;100277.38;4994111;28;20280;-68
2023/09/19 04:51:07;;;;;;;6.77;3.80;;;;;;;18.61;80.79;100276.75;4998396;28;20214;-69
2023/09/19 04:53:34;;;;;;;5.63;3.70;;;;;;;18.59;80.75;100281.50;4996262;28;20293;-69
2023/09/19 04:56:03;;;;;;;5.17;3.30;;;;;;;18.65;81.07;100294.09;5001338;28;20213;-69
2023/09/19 04:58:31;;;;;;;12.33;4.00;;;;;;;18.64;80.49;100291.66;4994118;28;20205;-68
2023/09/19 05:00:59;;;;;;;6.03;3.73;;;;;;;18.61;80.53;100302.78;4994016;28;20213;-69
2023/09/19 05:03:27;;;;;;;11.03;4.10;;;;;;;18.58;80.25;100306.69;4996601;28;20206;-69
2023/09/19 05:05:55;;;;;;;7.97;3.23;;;;;;;18.60;80.68;100311.88;4994082;28;20336;-68
2023/09/19 05:08:25;;;;;;;7.27;3.97;;;;;;;18.62;79.33;100307.13;4994753;28;20309;-68
2023/09/19 05:10:53;;;;;;;7.67;3.47;;;;;;;18.62;79.30;100304.44;4994459;28;21099;-69
2023/09/19 05:13:23;;;;;;;8.40;3.73;;;;;;;18.62;78.67;100301.75;4993153;28;20230;-70
2023/09/19 05:15:51;;;;;;;9.33;3.50;;;;;;;18.59;78.35;100307.53;4992614;28;20277;-68
2023/09/19 05:18:18;;;;;;;9.00;3.77;;;;;;;18.50;80.14;100311.41;4994950;28;20365;-67
2023/09/19 05:20:46;;;;;;;11.77;3.70;;;;;;;18.59;79.86;100320.94;4993655;28;20209;-68
2023/09/19 05:23:14;;;;;;;6.77;2.93;;;;;;;18.62;77.97;100326.75;4994047;28;20210;-68
2023/09/19 05:25:43;;;;;;;10.90;3.13;;;;;;;18.64;78.98;100323.88;4992364;28;20297;-69
2023/09/19 05:28:14;;;;;;;8.13;3.10;;;;;;;18.69;78.01;100326.75;4989275;28;20197;-69
2023/09/19 05:30:43;;;;;;;6.07;3.20;;;;;;;18.71;78.22;100322.00;4996360;28;20304;-69
2023/09/19 05:33:13;;;;;;;6.70;3.27;;;;;;;18.73;77.58;100328.81;4994861;28;20224;-70
2023/09/19 05:35:41;;;;;;;9.70;2.90;;;;;;;18.72;77.12;100326.34;4991579;28;20269;-68
2023/09/19 05:38:11;;;;;;;8.27;3.53;;;;;;;18.64;77.50;100324.69;4990462;28;20293;-68
2023/09/19 05:40:42;;;;;;;4.57;2.70;;;;;;;18.64;77.20;100318.50;4994231;28;20297;-68
2023/09/19 05:43:11;;;;;;;9.23;2.73;;;;;;;18.55;78.07;100319.69;4989788;28;20229;-69
2023/09/19 05:45:40;;;;;;;8.00;2.97;;;;;;;18.50;78.89;100320.28;4992219;28;20206;-70
2023/09/19 05:48:09;;;;;;;8.00;2.90;;;;;;;18.51;78.57;100323.78;4990331;28;20236;-68
2023/09/19 05:50:37;;;;;;;7.30;2.90;;;;;;;18.46;79.05;100326.28;4992255;28;20579;-68
2023/09/19 05:53:05;;;;;;;10.37;3.17;;;;;;;18.50;77.92;100327.50;4991928;28;20317;-68
2023/09/19 05:55:32;;;;;;;12.03;3.20;;;;;;;18.57;78.63;100331.06;4990911;28;20297;-70
2023/09/19 05:58:00;;;;;;;5.73;2.80;;;;;;;18.74;77.89;100340.38;4991497;28;20351;-69
2023/09/19 06:00:29;;;;;;;11.07;3.20;;;;;;;18.88;77.22;100341.25;4990702;28;20285;-69
2023/09/19 06:02:58;;;;;;;8.67;3.17;;;;;;;18.94;75.90;100343.94;4994565;28;20297;-70
2023/09/19 06:05:27;;;;;;;5.77;2.80;;;;;;;19.02;75.89;100349.09;4993464;28;20290;-66
2023/09/19 06:07:55;;;;;;;7.53;2.33;;;;;;;19.09;75.48;100354.47;4994143;28;20194;-64
2023/09/19 06:10:23;;;;;;;8.37;2.73;;;;;;;19.18;74.88;100359.44;4996017;28;20233;-65
2023/09/19 06:12:51;;;;;;;6.63;2.50;;;;;;;19.24;74.71;100360.50;4996969;28;20265;-65
2023/09/19 06:15:21;;;;;;;7.13;2.30;;;;;;;19.25;73.99;100358.63;4999249;28;20214;-66
2023/09/19 06:17:51;;;;;;;6.13;2.73;;;;;;;19.29;73.62;100362.56;4995840;28;20293;-65
2023/09/19 06:20:19;;;;;;;8.33;2.37;;;;;;;19.31;73.71;100363.19;4994320;28;20816;-65
2023/09/19 06:22:48;;;;;;;7.83;2.83;;;;;;;19.41;72.93;100358.22;4996243;28;20907;-63
2023/09/19 06:25:19;;;;;;;6.20;2.07;;;;;;;19.31;73.35;100368.56;4993323;28;20210;-64
2023/09/19 06:27:47;;;;;;;5.43;2.27;;;;;;;19.26;73.47;100365.69;4994844;28;20552;-65
2023/09/19 06:30:15;;;;;;;6.13;2.20;;;;;;;19.27;72.79;100362.75;4993362;28;20217;-67
2023/09/19 06:32:43;;;;;;;5.67;2.20;;;;;;;19.29;73.16;100365.25;4996772;28;20225;-69
2023/09/19 06:35:14;;;;;;;5.87;2.30;;;;;;;19.29;72.62;100362.56;4996088;28;20209;-67
2023/09/19 06:37:43;;;;;;;5.50;2.37;;;;;;;19.33;72.20;100371.88;4994629;28;20217;-67
2023/09/19 06:40:13;;;;;;;10.97;2.20;;;;;;;19.41;70.69;100372.50;4995593;28;20599;-66
2023/09/19 06:42:42;;;;;;;5.07;2.00;;;;;;;19.28;71.90;100371.66;4993999;28;20226;-65
2023/09/19 06:45:13;;;;;;;7.50;2.37;;;;;;;19.26;71.44;100382.59;4996159;28;20202;-66
2023/09/19 06:47:41;;;;;;;5.13;1.97;;;;;;;19.27;70.65;100384.25;4997264;28;20617;-66
2023/09/19 06:50:13;;;;;;;5.27;1.80;;;;;;;19.28;69.58;100390.47;4996298;28;20230;-65
2023/09/19 06:52:42;;;;;;;8.03;2.00;;;;;;;19.29;70.21;100400.19;4994199;28;20674;-64
2023/09/19 06:55:13;;;;;;;7.13;2.20;;;;;;;19.36;69.51;100404.53;4996614;28;20209;-66
2023/09/19 06:57:43;;;;;;;9.60;2.20;;;;;;;19.31;69.37;100408.88;4992569;28;20655;-65
2023/09/19 07:00:18;;;;;;;8.57;2.17;;;;;;;19.33;69.33;100409.50;4994217;28;20197;-65
2023/09/19 07:02:45;;;;;;;15.53;2.40;;;;;;;19.30;68.27;100410.75;4994940;28;20687;-64
2023/09/19 07:05:13;;;;;;;7.53;2.30;;;;;;;19.31;68.16;100422.31;4996606;28;20210;-65
2023/09/19 07:07:43;;;;;;;9.87;2.40;;;;;;;19.29;68.68;100416.31;4995098;28;20313;-66
2023/09/19 07:10:13;;;;;;;9.50;2.50;;;;;;;19.35;68.73;100412.81;4994528;28;20328;-66
2023/09/19 07:12:42;;;;;;;6.87;2.40;;;;;;;19.36;67.55;100417.13;4996481;28;20229;-65
2023/09/19 07:15:10;;;;;;;7.47;2.20;;;;;;;19.36;68.19;100422.50;4994050;28;20270;-63
2023/09/19 07:17:37;;;;;;;7.17;1.73;;;;;;;19.34;68.88;100420.06;4995302;28;20308;-65
2023/09/19 07:20:07;;;;;;;7.33;2.07;;;;;;;19.37;68.33;100422.31;4993744;28;20667;-66
2023/09/19 07:22:36;;;;;;;5.23;1.77;;;;;;;19.45;67.96;100429.34;4993002;28;20205;-66
2023/09/19 07:25:06;;;;;;;7.03;1.93;;;;;;;19.54;67.98;100436.22;4995205;28;20201;-65
2023/09/19 07:27:33;;;;;;;8.30;2.10;;;;;;;19.58;68.05;100445.53;4994215;28;20324;-65
2023/09/19 07:30:01;;;;;;;6.50;2.00;;;;;;;19.62;67.99;100452.13;4996391;28;20676;-65
2023/09/19 07:32:29;;;;;;;9.27;1.90;;;;;;;19.62;67.13;100444.06;4997108;28;20209;-65
2023/09/19 07:34:57;;;;;;;6.03;1.90;;;;;;;19.65;67.46;100456.28;4994318;28;20241;-66
2023/09/19 07:37:25;;;;;;;8.90;1.97;;;;;;;19.71;65.48;100453.56;4993852;28;20202;-66
2023/09/19 07:39:54;;;;;;;9.07;2.23;;;;;;;19.69;65.36;100455.69;4988745;28;20292;-66
2023/09/19 07:42:23;;;;;;;8.00;2.17;;;;;;;19.76;65.02;100463.72;4991030;28;20766;-65
2023/09/19 07:44:50;;;;;;;7.80;1.90;;;;;;;19.82;65.09;100457.50;4994840;28;20655;-65
2023/09/19 07:47:18;;;;;;;7.70;2.03;;;;;;;19.90;63.93;100466.19;4992652;28;20216;-65
2023/09/19 07:49:47;;;;;;;8.07;2.13;;;;;;;19.98;62.86;100477.78;4993097;28;20296;-64
2023/09/19 07:52:15;;;;;;;9.23;2.00;;;;;;;19.97;63.13;100471.56;4993957;28;20213;-66
2023/09/19 07:54:43;;;;;;;7.50;2.10;;;;;;;20.04;62.28;100474.25;4994492;28;20243;-64
2023/09/19 07:57:11;;;;;;;7.87;2.13;;;;;;;20.00;62.22;100475.72;4998046;28;20798;-66
2023/09/19 07:59:42;;;;;;;8.17;2.00;;;;;;;20.00;61.75;100481.91;4993414;28;22140;-65
2023/09/19 08:02:15;;;;;;;8.53;1.80;;;;;;;20.07;61.79;100487.28;4996711;28;20213;-64
2023/09/19 08:04:46;;;;;;;7.07;2.20;;;;;;;20.11;60.91;100485.84;4996292;28;20212;-66
2023/09/19 08:07:14;;;;;;;8.30;1.60;;;;;;;20.18;60.35;100489.34;4991098;28;20296;-66
2023/09/19 08:09:48;;;;;;;5.60;1.57;;;;;;;20.23;60.01;100492.22;4991879;28;20222;-65
2023/09/19 08:12:16;;;;;;;6.07;2.10;;;;;;;20.28;59.82;100495.97;4995964;28;20198;-64
2023/09/19 08:14:46;;;;;;;7.90;1.87;;;;;;;20.35;59.51;100493.28;4993314;28;20259;-66
2023/09/19 08:17:14;;;;;;;6.73;2.00;;;;;;;20.40;59.16;100493.47;4994170;28;20253;-65
2023/09/19 08:19:44;;;;;;;6.00;1.87;;;;;;;20.55;57.17;100499.44;4991800;28;20210;-65
2023/09/19 08:22:12;;;;;;;9.93;1.83;;;;;;;21.08;55.61;100501.91;4991570;28;20217;-65
2023/09/19 08:24:42;;;;;;;8.30;2.03;;;;;;;21.95;52.23;100503.78;4991726;28;20305;-66
2023/09/19 08:27:12;;;;;;;7.60;1.90;;;;;;;22.67;50.02;100504.94;4992334;28;20217;-67
2023/09/19 08:29:40;;;;;;;7.93;1.73;;;;;;;23.77;47.27;100491.13;4993284;28;20211;-65
2023/09/19 08:32:09;;;;;;;6.50;1.87;;;;;;;24.75;45.41;100502.84;4995747;28;20764;-64
2023/09/19 08:34:38;;;;;;;6.23;2.17;;;;;;;25.71;43.32;100505.75;4993743;28;20233;-63
2023/09/19 08:37:07;;;;;;;9.35;2.35;;;;;;;26.55;41.66;100493.72;4994726;28;20205;-63
2023/09/19 08:39:36;;;;;;;11.65;2.30;;;;;;;27.03;40.55;100505.72;4996321;28;20287;-64
2023/09/19 08:42:04;;;;;;;11.07;2.17;;;;;;;27.67;39.51;100495.75;4990784;28;20225;-65
2023/09/19 08:44:40;;;;;;;7.65;2.00;;;;;;;28.35;37.27;100501.41;4991921;28;20297;-65
2023/09/19 08:47:11;;;;;;;6.43;1.80;;;;;;;28.91;36.53;100507.97;4992530;28;20620;-64
2023/09/19 08:49:46;;;;;;;6.93;1.90;;;;;;;29.43;35.31;100496.91;4996672;28;20206;-65
2023/09/19 08:52:23;;;;;;;12.05;2.85;;;;;;;29.63;34.38;100500.75;4994080;28;20211;-66
2023/09/19 08:54:53;;;;;;;8.15;2.33;;;;;;;30.10;34.28;100497.72;4993587;28;20216;-66
2023/09/19 08:57:22;;;;;;;4.47;1.33;;;;;;;30.35;33.26;100505.03;4991731;28;20334;-65
2023/09/19 08:59:50;;;;;;;6.82;2.13;;;;;;;30.61;32.85;100501.16;4992379;28;20221;-63
2023/09/19 09:02:20;;;;;;;7.78;2.03;;;;;;;30.58;32.28;100509.94;4993350;28;20297;-65
2023/09/19 09:04:50;;;;;;;10.27;2.30;;;;;;;30.60;32.42;100511.31;4989193;28;20217;-64
2023/09/19 09:07:20;;;;;;;6.93;1.95;;;;;;;30.13;32.78;100503.47;4991413;28;20217;-62
2023/09/19 09:09:48;;;;;;;3.75;1.73;;;;;;;29.51;33.25;100504.56;4993116;28;20800;-65
2023/09/19 09:12:16;;;;;;;6.53;2.17;;;;;;;28.49;34.51;100513.50;4995447;28;20209;-65
2023/09/19 09:14:46;;;;;;;9.85;2.25;;;;;;;27.48;36.09;100512.72;4992663;28;20802;-66
2023/09/19 09:17:13;;;;;;;6.72;2.00;;;;;;;26.48;38.09;100514.00;4993682;28;20305;-65
2023/09/19 09:19:43;;;;;;;6.70;2.38;;;;;;;25.68;39.63;100520.63;4994369;28;20221;-65
2023/09/19 09:22:12;;;;;;;7.43;2.30;;;;;;;25.04;41.20;100519.19;4993576;28;20574;-65
2023/09/19 09:24:53;;;;;;;5.32;1.92;;;;;;;24.58;42.14;100522.81;4993871;28;20205;-67
2023/09/19 09:27:23;;;;;;;9.02;2.17;;;;;;;24.32;41.95;100524.13;4993695;28;20768;-66
2023/09/19 09:29:54;;;;;;;7.28;2.15;;;;;;;24.20;42.25;100524.09;4994074;28;20312;-66
2023/09/19 09:32:24;;;;;;;8.25;2.17;;;;;;;23.97;42.82;100521.41;4994539;28;20201;-65
2023/09/19 09:34:54;;;;;;;7.93;2.35;;;;;;;23.94;43.66;100519.16;4986012;28;20463;-65
2023/09/19 09:37:29;;;;;;;10.13;2.80;;;;;;;23.93;43.45;100517.50;4992845;28;20208;-65
2023/09/19 09:40:17;;;;;;;6.57;2.45;;;;;;;23.94;43.48;100519.16;4994493;28;20259;-66
2023/09/19 09:42:46;;;;;;;8.90;2.45;;;;;;;24.05;43.07;100523.75;4998840;28;20737;-64
2023/09/19 09:45:17;;;;;;;7.93;2.63;;;;;;;23.87;43.13;100526.56;4999309;28;20312;-65
2023/09/19 09:47:54;;;;;;;8.35;1.92;;;;;;;23.54;44.06;100517.09;4993504;28;20663;-64
2023/09/19 09:50:39;;;;;;;10.95;2.55;;;;;;;23.43;44.00;100515.16;4995592;28;20206;-65
2023/09/19 09:53:21;;;;;;;7.70;2.47;;;;;;;24.06;43.22;100505.63;4991315;28;20290;-66
2023/09/19 09:56:00;;;;;;;13.05;2.75;;;;;;;23.77;44.43;100501.94;4993283;28;20295;-65
2023/09/19 09:58:29;;;;;;;8.73;2.17;;;;;;;23.39;44.64;100511.28;4994068;28;20200;-65
2023/09/19 10:00:58;;;;;;;8.90;2.13;;;;;;;23.11;45.72;100505.66;4995027;28;20316;-63
2023/09/19 10:03:38;;;;;;;13.38;2.20;;;;;;;22.86;45.92;100500.38;4992790;28;20252;-66
2023/09/19 10:06:24;;;;;;;9.30;2.65;;;;;;;22.76;46.29;100503.59;4990824;28;20614;-65
2023/09/19 10:09:05;;;;;;;9.43;2.30;;;;;;;22.77;46.55;100489.03;4992982;28;20198;-66
2023/09/19 10:11:37;;;;;;;6.15;1.60;;;;;;;22.95;46.26;100488.19;4996901;28;20296;-65
2023/09/19 10:14:06;;;;;;;10.85;2.88;;;;;;;23.24;45.25;100489.22;4994073;28;20201;-66
2023/09/19 10:16:36;;;;;;;7.95;2.15;;;;;;;23.25;45.64;100477.34;4994307;28;20245;-66
2023/09/19 10:19:08;;;;;;;7.35;2.20;;;;;;;23.08;45.40;100481.75;4993187;28;20305;-65
2023/09/19 10:21:40;;;;;;;10.70;2.30;;;;;;;22.82;46.28;100483.75;4995209;28;20547;-65
2023/09/19 10:24:09;;;;;;;8.45;2.42;;;;;;;22.69;45.17;100478.47;4994780;28;20199;-67
2023/09/19 10:26:39;;;;;;;9.02;2.00;;;;;;;22.66;45.96;100494.34;4993390;28;20237;-65
2023/09/19 10:29:09;;;;;;;6.78;1.80;;;;;;;22.59;46.31;100489.03;4996738;28;20293;-65
2023/09/19 10:31:40;;;;;;;6.05;1.75;;;;;;;22.53;46.51;100495.31;4996178;28;20225;-65
2023/09/19 10:34:10;;;;;;;6.47;1.73;;;;;;;22.53;47.33;100485.31;4993161;28;20281;-65
2023/09/19 10:36:42;;;;;;;8.60;2.40;;;;;;;22.48;46.44;100487.91;4993079;28;20206;-65
2023/09/19 10:39:12;;;;;;;6.03;2.05;;;;;;;22.50;46.51;100479.56;4992808;28;20194;-66
2023/09/19 10:41:40;;;;;;;6.13;1.88;;;;;;;22.70;45.98;100490.94;4994981;28;21195;-65
2023/09/19 10:44:09;;;;;;;5.22;1.92;;;;;;;23.13;45.51;100482.69;4994400;28;20280;-66
2023/09/19 10:46:38;;;;;;;9.13;2.72;;;;;;;23.27;45.38;100496.88;4992494;28;20213;-65
2023/09/19 10:49:06;;;;;;;7.55;2.65;;;;;;;23.17;46.65;100492.03;4993049;28;20309;-66
2023/09/19 10:51:45;;;;;;;5.65;2.13;;;;;;;23.16;44.61;100490.38;4993409;28;20205;-66
2023/09/19 10:54:17;;;;;;;9.30;2.55;;;;;;;23.03;45.21;100489.75;4994527;28;20193;-66
2023/09/19 10:56:50;;;;;;;10.55;2.70;;;;;;;23.14;45.24;100487.06;4993025;28;20252;-64
2023/09/19 10:59:19;;;;;;;9.32;2.38;;;;;;;25.40;42.09;100486.22;4996184;28;20317;-67
2023/09/19 11:01:50;;;;;;;7.30;2.03;;;;;;;28.38;36.32;100479.09;4997218;28;20724;-65
2023/09/19 11:04:24;;;;;;;6.88;1.90;;;;;;;28.36;34.37;100481.25;4995218;28;20825;-65
2023/09/19 11:07:08;;;;;;;6.43;1.92;;;;;;;27.06;35.94;100472.56;4997393;28;20217;-66
2023/09/19 11:09:51;;;;;;;6.32;1.88;;;;;;;26.54;38.62;100464.06;4996691;28;20219;-65
2023/09/19 11:12:49;;;;;;;5.43;1.90;;;;;;;26.63;37.99;100461.72;4997651;28;20308;-66
2023/09/19 11:15:54;;;;;;;3.95;1.50;;;;;;;25.90;38.92;100460.16;4997700;28;20230;-71
2023/09/19 11:18:54;;;;;;;9.85;2.03;;;;;;;25.35;38.96;100460.84;4997797;28;20209;-66
2023/09/19 11:21:56;;;;;;;10.02;4.68;;;;;;;25.88;39.44;100459.56;4996226;28;20205;-67
2023/09/19 11:24:35;;;;;;;4.88;1.80;;;;;;;25.68;38.64;100454.66;4992598;28;20210;-64
2023/09/19 11:27:17;;;;;;;4.82;1.67;;;;;;;25.39;39.38;100446.56;4995871;28;20291;-66
2023/09/19 11:29:45;;;;;;;5.95;2.00;;;;;;;24.92;39.51;100450.59;4998285;28;20705;-66
2023/09/19 11:32:15;;;;;;;5.10;1.92;;;;;;;24.83;40.37;100447.41;4997353;28;20243;-63
2023/09/19 11:34:46;;;;;;;7.07;2.33;;;;;;;24.78;40.70;100449.22;4996000;28;20206;-63
2023/09/19 11:38:15;;;;;;;6.20;1.98;;;;;;;24.53;40.38;100442.22;4995019;28;20647;-64
2023/09/19 11:40:55;;;;;;;6.18;1.83;;;;;;;24.23;39.43;100445.09;4997833;28;20208;-66